Time;durP1;ratioP1;P1;durP2;ratioP2;P2;SDS_P1;SDS_P2;PMS_P1;PMS_P2;Temp;Humidity;BMP_temperature;BMP_pressure;BME280_temperature;BME280_humidity;BME280_pressure;Samples;Min_cycle;Max_cycle;Signal;HPM_P1;HPM_P2
2022/08/25 00:01:25;;;;;;;9.20;3.55;;;;;;;17.33;84.13;95783.22;1701094;84;21003;-71
2022/08/25 00:03:52;;;;;;;11.53;3.47;;;;;;;17.38;84.43;95776.37;1701269;84;21027;-71
2022/08/25 00:06:20;;;;;;;9.10;3.50;;;;;;;17.43;84.25;95774.38;1701400;84;21058;-71
2022/08/25 00:08:48;;;;;;;14.35;3.50;;;;;;;17.38;84.02;95775.89;1701155;84;21075;-71
2022/08/25 00:11:20;;;;;;;9.80;3.60;;;;;;;17.29;83.85;95777.17;1701380;84;21027;-71
2022/08/25 00:13:51;;;;;;;10.32;3.22;;;;;;;17.23;84.59;95779.21;1701343;84;21143;-71
2022/08/25 00:16:20;;;;;;;6.47;3.00;;;;;;;17.17;84.91;95781.67;1701090;84;21038;-71
2022/08/25 00:18:51;;;;;;;7.05;3.22;;;;;;;17.17;84.90;95773.67;1701276;84;21090;-70
2022/08/25 00:21:20;;;;;;;10.55;4.10;;;;;;;17.14;85.10;95777.81;1701307;84;20983;-71
2022/08/25 00:23:47;;;;;;;11.20;3.40;;;;;;;17.06;85.46;95774.12;1701153;84;20991;-70
2022/08/25 00:26:14;;;;;;;11.12;3.90;;;;;;;17.02;85.24;95769.84;1701365;84;20991;-71
2022/08/25 00:28:42;;;;;;;11.93;3.33;;;;;;;16.97;84.97;95771.83;1701095;84;20972;-71
2022/08/25 00:31:17;;;;;;;8.63;3.85;;;;;;;16.95;85.09;95774.16;1701055;84;21003;-71
2022/08/25 00:33:46;;;;;;;8.50;3.50;;;;;;;16.93;84.89;95768.88;1700965;84;21584;-71
2022/08/25 00:36:14;;;;;;;8.68;2.72;;;;;;;16.92;84.89;95768.48;1701183;84;21015;-71
2022/08/25 00:38:44;;;;;;;5.80;3.17;;;;;;;16.94;84.94;95766.63;1701006;84;21012;-70
2022/08/25 00:41:16;;;;;;;8.78;4.03;;;;;;;16.89;84.80;95759.77;1701300;84;21484;-71
2022/08/25 00:43:59;;;;;;;6.28;3.52;;;;;;;16.83;84.92;95760.41;1700714;84;21015;-70
2022/08/25 00:46:34;;;;;;;8.20;3.05;;;;;;;16.79;85.36;95762.78;1701149;84;20987;-71
2022/08/25 00:49:15;;;;;;;12.98;3.50;;;;;;;16.85;85.93;95760.33;1701019;84;21099;-71
2022/08/25 00:52:07;;;;;;;7.00;3.15;;;;;;;16.86;85.29;95762.95;1701174;84;20992;-70
2022/08/25 00:54:45;;;;;;;10.88;3.40;;;;;;;16.84;85.52;95755.95;1701222;84;21015;-71
2022/08/25 00:57:16;;;;;;;8.18;3.87;;;;;;;16.79;85.55;95752.59;1700985;84;21884;-71
2022/08/25 00:59:44;;;;;;;11.75;3.40;;;;;;;16.84;86.09;95751.95;1701227;84;21035;-70
2022/08/25 01:02:14;;;;;;;8.45;3.60;;;;;;;16.87;85.56;95751.81;1701305;84;21007;-71
2022/08/25 01:04:43;;;;;;;11.28;3.37;;;;;;;16.79;85.50;95748.60;1701139;84;21055;-71
2022/08/25 01:07:11;;;;;;;6.42;3.33;;;;;;;16.75;85.12;95748.28;1701369;84;21027;-71
2022/08/25 01:09:38;;;;;;;12.07;4.05;;;;;;;16.75;85.49;95740.28;1701180;84;20991;-71
2022/08/25 01:12:06;;;;;;;10.93;3.50;;;;;;;16.75;85.32;95739.81;1701103;84;21023;-71
2022/08/25 01:14:34;;;;;;;10.63;3.50;;;;;;;16.78;85.14;95730.86;1701143;84;21039;-71
2022/08/25 01:17:01;;;;;;;4.85;2.80;;;;;;;16.72;85.18;95730.62;1701190;84;21032;-70
2022/08/25 01:19:32;;;;;;;6.90;3.05;;;;;;;16.75;85.47;95733.16;1700859;84;21087;-71
2022/08/25 01:21:59;;;;;;;12.55;3.10;;;;;;;16.71;85.00;95727.56;1701388;84;21019;-71
2022/08/25 01:24:43;;;;;;;9.93;3.92;;;;;;;16.65;85.60;95730.46;1701182;84;21568;-70
2022/08/25 01:27:10;;;;;;;9.68;3.33;;;;;;;16.70;85.92;95728.95;1701304;84;21505;-71
2022/08/25 01:29:37;;;;;;;10.48;3.30;;;;;;;16.78;86.00;95725.09;1701400;84;20987;-71
2022/08/25 01:32:09;;;;;;;11.25;3.42;;;;;;;16.85;85.79;95719.88;1700932;84;20984;-70
2022/08/25 01:34:40;;;;;;;7.47;3.20;;;;;;;16.89;85.09;95721.12;1701273;84;21061;-71
2022/08/25 01:37:08;;;;;;;7.90;3.22;;;;;;;16.85;85.14;95728.35;1701242;84;20987;-71
2022/08/25 01:39:38;;;;;;;9.28;3.70;;;;;;;16.74;85.13;95725.23;1700998;84;21469;-71
2022/08/25 01:42:25;;;;;;;8.13;2.60;;;;;;;16.70;85.17;95730.28;1701073;84;21408;-71
2022/08/25 01:44:52;;;;;;;6.87;2.98;;;;;;;16.59;84.31;95727.59;1701001;84;21012;-71
2022/08/25 01:47:19;;;;;;;8.50;2.85;;;;;;;16.41;84.41;95730.98;1701177;84;20976;-71
2022/08/25 01:49:46;;;;;;;7.00;3.22;;;;;;;16.31;84.71;95725.63;1701358;84;21007;-71
2022/08/25 01:52:33;;;;;;;8.90;3.12;;;;;;;16.27;84.72;95727.98;1701357;84;21051;-71
2022/08/25 01:55:00;;;;;;;11.15;3.55;;;;;;;16.24;84.84;95732.97;1679182;84;21553;-71
2022/08/25 01:57:30;;;;;;;9.43;3.45;;;;;;;16.25;85.00;95728.50;1701234;84;21487;-71
2022/08/25 01:59:58;;;;;;;9.98;4.30;;;;;;;16.32;85.21;95736.66;1701068;84;21051;-71
2022/08/25 02:02:25;;;;;;;14.68;3.20;;;;;;;16.38;85.21;95735.97;1700994;84;21477;-71
2022/08/25 02:04:51;;;;;;;16.70;3.20;;;;;;;16.35;84.97;95732.54;1701269;84;20988;-71
2022/08/25 02:07:19;;;;;;;10.82;3.60;;;;;;;16.29;85.23;95734.13;1700856;84;21541;-70
2022/08/25 02:09:46;;;;;;;8.05;3.77;;;;;;;16.28;86.31;95737.70;1701269;84;21513;-71
2022/08/25 02:12:13;;;;;;;8.10;3.12;;;;;;;16.23;86.17;95732.11;1700903;84;21027;-71
2022/08/25 02:14:40;;;;;;;9.13;3.40;;;;;;;16.21;86.64;95726.44;1700905;84;21025;-71
2022/08/25 02:17:06;;;;;;;7.58;2.90;;;;;;;16.27;86.75;95731.98;1700708;84;21058;-71
2022/08/25 02:19:33;;;;;;;9.65;3.50;;;;;;;16.31;86.56;95729.14;1701254;84;20984;-71
2022/08/25 02:22:00;;;;;;;10.82;3.27;;;;;;;16.36;86.17;95724.98;1700779;84;21019;-70
2022/08/25 02:24:28;;;;;;;7.25;3.02;;;;;;;16.42;86.16;95724.25;1701147;84;21026;-71
2022/08/25 02:26:54;;;;;;;8.73;2.95;;;;;;;16.47;85.81;95732.06;1700961;84;21115;-71
2022/08/25 02:29:21;;;;;;;10.28;3.30;;;;;;;16.41;85.10;95730.52;1701172;84;21480;-71
2022/08/25 02:31:49;;;;;;;6.72;2.92;;;;;;;16.34;85.44;95730.34;1700696;84;21024;-71
2022/08/25 02:34:16;;;;;;;7.67;3.08;;;;;;;16.36;85.57;95730.30;1701120;84;21031;-71
2022/08/25 02:36:43;;;;;;;6.67;3.10;;;;;;;16.31;84.99;95732.28;1700848;84;21019;-71
2022/08/25 02:39:11;;;;;;;8.75;3.40;;;;;;;16.24;85.12;95734.30;1700884;84;21513;-71
2022/08/25 02:41:38;;;;;;;6.85;3.12;;;;;;;16.16;85.18;95729.27;1701255;84;21030;-71
2022/08/25 02:44:06;;;;;;;8.73;2.70;;;;;;;16.10;85.47;95724.20;1700768;84;21099;-71
2022/08/25 02:46:33;;;;;;;7.85;3.45;;;;;;;16.10;85.66;95719.31;1701096;84;21048;-71
2022/08/25 02:49:00;;;;;;;8.23;3.42;;;;;;;16.08;86.19;95718.53;1700917;84;21008;-71
2022/08/25 02:51:32;;;;;;;9.60;3.40;;;;;;;16.15;86.45;95722.66;1701092;84;20984;-71
2022/08/25 02:54:01;;;;;;;8.58;3.20;;;;;;;16.21;86.18;95725.11;1720467;83;21589;-71
2022/08/25 02:56:30;;;;;;;7.90;3.02;;;;;;;16.22;86.13;95730.35;1732056;83;21539;-71
2022/08/25 02:58:58;;;;;;;12.37;3.00;;;;;;;16.22;85.82;95726.83;1732143;83;21031;-71
2022/08/25 03:01:25;;;;;;;5.60;2.90;;;;;;;16.25;85.51;95729.36;1732044;83;21480;-70
2022/08/25 03:03:52;;;;;;;13.05;3.40;;;;;;;16.14;85.32;95728.45;1731905;82;21002;-71
2022/08/25 03:06:24;;;;;;;7.08;3.37;;;;;;;16.07;84.86;95728.75;1732145;83;20995;-71
2022/08/25 03:08:52;;;;;;;15.90;4.85;;;;;;;16.06;85.14;95730.55;1732270;83;21059;-71
2022/08/25 03:11:20;;;;;;;13.22;3.33;;;;;;;16.04;85.08;95736.39;1732073;83;21015;-71
2022/08/25 03:13:49;;;;;;;5.80;2.67;;;;;;;15.98;85.28;95735.30;1731736;83;21476;-71
2022/08/25 03:16:17;;;;;;;10.23;2.77;;;;;;;15.92;85.08;95739.03;1731932;83;21480;-70
2022/08/25 03:18:44;;;;;;;10.48;3.05;;;;;;;15.86;85.41;95741.94;1731825;83;21118;-71
2022/08/25 03:21:12;;;;;;;5.75;3.00;;;;;;;15.85;86.07;95733.56;1732353;83;21034;-71
2022/08/25 03:23:40;;;;;;;13.95;3.10;;;;;;;15.83;85.77;95733.22;1732221;83;21465;-70
2022/08/25 03:28:56;;;;;;;7.85;3.30;;;;;;;15.87;86.71;95735.67;1731842;83;21033;-71
2022/08/25 03:31:27;;;;;;;9.88;3.02;;;;;;;15.88;86.58;95737.43;1732390;83;21058;-70
2022/08/25 03:33:54;;;;;;;6.95;3.00;;;;;;;15.90;86.59;95734.69;1732117;83;21034;-71
2022/08/25 03:36:22;;;;;;;12.47;3.60;;;;;;;15.95;86.61;95736.72;1732140;83;21062;-71
2022/08/25 03:38:49;;;;;;;14.45;2.85;;;;;;;16.05;86.87;95730.59;1732114;83;21027;-71
2022/08/25 03:41:21;;;;;;;9.80;3.20;;;;;;;16.02;85.70;95734.23;1732395;83;21078;-71
2022/08/25 03:43:49;;;;;;;7.53;3.05;;;;;;;15.98;85.49;95729.98;1730883;83;21533;-71
2022/08/25 03:46:34;;;;;;;7.17;2.55;;;;;;;15.95;85.96;95732.73;1731599;83;21090;-71
2022/08/25 03:49:04;;;;;;;12.60;2.98;;;;;;;15.93;85.62;95730.61;1731913;83;21019;-71
2022/08/25 03:51:35;;;;;;;4.95;2.72;;;;;;;15.84;85.69;95726.95;1732130;83;21062;-70
2022/08/25 03:54:03;;;;;;;7.58;2.72;;;;;;;15.73;85.35;95730.88;1714511;82;21075;-70
2022/08/25 03:56:30;;;;;;;12.43;2.70;;;;;;;15.69;86.42;95732.34;1701256;84;20980;-71
2022/08/25 03:58:58;;;;;;;10.82;3.33;;;;;;;15.68;86.27;95734.14;1701294;84;21007;-71
2022/08/25 04:01:25;;;;;;;8.60;2.98;;;;;;;15.67;86.24;95728.86;1700967;84;20995;-71
2022/08/25 04:03:52;;;;;;;8.00;3.77;;;;;;;15.75;86.31;95732.16;1701328;84;21042;-70
2022/08/25 04:06:20;;;;;;;15.13;3.45;;;;;;;15.81;86.87;95733.73;1700822;84;21119;-70
2022/08/25 04:08:47;;;;;;;13.15;3.35;;;;;;;15.86;86.84;95727.77;1701399;84;21472;-71
2022/08/25 04:11:21;;;;;;;7.60;3.42;;;;;;;15.91;86.95;95729.33;1701133;84;20984;-71
2022/08/25 04:13:48;;;;;;;13.05;3.30;;;;;;;16.00;87.03;95732.98;1701146;84;21497;-71
2022/08/25 04:16:20;;;;;;;10.30;3.40;;;;;;;16.08;86.45;95730.50;1701123;84;21308;-71
2022/08/25 04:18:48;;;;;;;7.15;3.22;;;;;;;16.12;86.65;95736.95;1701369;84;21023;-71
2022/08/25 04:21:16;;;;;;;9.43;3.17;;;;;;;16.20;86.50;95732.67;1701174;84;21042;-70
2022/08/25 04:23:45;;;;;;;13.30;3.22;;;;;;;16.19;86.13;95734.94;1701472;84;21054;-71
2022/08/25 04:26:19;;;;;;;5.10;3.30;;;;;;;16.16;86.34;95739.05;1701217;84;20991;-71
2022/08/25 04:28:47;;;;;;;10.78;4.00;;;;;;;16.17;86.31;95734.98;1700800;84;21066;-71
2022/08/25 04:31:17;;;;;;;8.00;3.20;;;;;;;16.17;85.94;95734.13;1701081;84;21040;-71
2022/08/25 04:33:46;;;;;;;6.47;3.08;;;;;;;16.16;86.33;95725.27;1701148;84;21509;-71
2022/08/25 04:36:16;;;;;;;10.95;2.90;;;;;;;16.24;86.43;95727.64;1701217;84;21011;-71
2022/08/25 04:38:44;;;;;;;5.95;2.70;;;;;;;16.26;86.13;95728.45;1701410;84;21007;-71
2022/08/25 04:41:13;;;;;;;10.10;2.85;;;;;;;16.28;86.36;95723.95;1701466;84;21027;-71
2022/08/25 04:43:42;;;;;;;5.47;2.85;;;;;;;16.33;86.76;95721.97;1701316;84;21010;-71
2022/08/25 04:46:14;;;;;;;5.42;2.75;;;;;;;16.38;86.61;95729.31;1701229;84;20979;-71
2022/08/25 04:48:42;;;;;;;11.95;2.75;;;;;;;16.42;86.98;95726.05;1699943;84;21121;-71
2022/08/25 04:51:13;;;;;;;8.48;3.22;;;;;;;16.49;87.14;95715.56;1701214;84;21516;-71
2022/08/25 04:53:41;;;;;;;5.70;4.07;;;;;;;16.60;87.68;95728.45;1709639;83;21027;-71
2022/08/25 04:56:12;;;;;;;6.47;3.20;;;;;;;16.75;87.70;95726.96;1731906;83;21095;-71
2022/08/25 04:58:40;;;;;;;4.33;2.95;;;;;;;16.88;87.76;95726.88;1732261;83;21449;-71
2022/08/25 05:01:14;;;;;;;3.58;3.00;;;;;;;16.97;87.28;95723.85;1732214;83;21007;-71
2022/08/25 05:03:42;;;;;;;7.08;3.70;;;;;;;17.08;87.22;95731.39;1731989;82;21003;-70
2022/08/25 05:06:09;;;;;;;6.10;3.47;;;;;;;17.20;86.86;95726.02;1731889;83;21106;-71
2022/08/25 05:08:36;;;;;;;7.28;3.50;;;;;;;17.22;86.14;95721.02;1732195;83;21062;-71
2022/08/25 05:11:08;;;;;;;4.00;3.50;;;;;;;17.29;86.44;95720.30;1731710;83;21003;-71
2022/08/25 05:13:36;;;;;;;6.80;4.08;;;;;;;17.39;86.87;95720.30;1732129;83;20987;-71
2022/08/25 05:16:04;;;;;;;10.28;3.08;;;;;;;17.51;86.56;95717.55;1732086;83;21516;-71
2022/08/25 05:18:32;;;;;;;9.15;3.47;;;;;;;17.65;86.56;95721.81;1732393;83;21455;-71
2022/08/25 05:21:09;;;;;;;5.78;3.05;;;;;;;17.78;86.44;95726.61;1732199;83;21054;-71
2022/08/25 05:23:37;;;;;;;8.45;3.37;;;;;;;17.86;86.10;95725.34;1732085;83;21030;-71
2022/08/25 05:26:08;;;;;;;11.18;4.05;;;;;;;17.95;86.04;95729.42;1732109;83;21518;-71
2022/08/25 05:28:37;;;;;;;7.33;3.37;;;;;;;18.05;86.12;95725.39;1732011;83;20987;-71
2022/08/25 05:31:04;;;;;;;9.83;3.27;;;;;;;18.11;85.16;95728.24;1731956;83;20965;-71
2022/08/25 05:33:31;;;;;;;6.37;3.37;;;;;;;18.15;85.27;95721.84;1731990;83;21010;-71
2022/08/25 05:35:58;;;;;;;7.70;3.65;;;;;;;18.22;85.18;95729.08;1732142;83;20991;-71
2022/08/25 05:38:24;;;;;;;5.80;3.10;;;;;;;18.34;85.31;95725.83;1732023;83;21549;-71
2022/08/25 05:41:04;;;;;;;8.53;3.62;;;;;;;18.43;84.98;95728.08;1732252;83;21485;-71
2022/08/25 05:43:32;;;;;;;11.25;3.60;;;;;;;18.56;85.46;95722.54;1731873;83;21092;-71
2022/08/25 05:46:00;;;;;;;8.48;3.67;;;;;;;18.70;84.99;95723.23;1732074;83;20983;-71
2022/08/25 05:48:27;;;;;;;7.00;3.30;;;;;;;18.77;84.40;95719.80;1732025;83;21082;-71
2022/08/25 05:50:56;;;;;;;10.18;3.45;;;;;;;18.87;83.97;95723.75;1732184;83;21553;-71
2022/08/25 05:53:25;;;;;;;7.95;3.62;;;;;;;18.99;84.51;95721.81;1730275;83;21040;-70
2022/08/25 05:55:54;;;;;;;7.03;3.80;;;;;;;19.18;84.43;95716.90;1679414;84;21023;-71
2022/08/25 05:58:23;;;;;;;5.35;3.37;;;;;;;19.34;84.30;95716.50;1701316;84;20998;-71
2022/08/25 06:00:51;;;;;;;9.50;3.55;;;;;;;19.46;83.27;95710.52;1701097;84;21025;-71
2022/08/25 06:03:18;;;;;;;7.42;3.42;;;;;;;19.58;83.32;95710.81;1701194;84;21031;-71
2022/08/25 06:05:45;;;;;;;4.67;3.40;;;;;;;19.71;83.34;95709.28;1701052;84;20980;-71
2022/08/25 06:08:12;;;;;;;8.23;3.70;;;;;;;19.84;82.88;95705.47;1701286;84;20980;-71
2022/08/25 06:10:39;;;;;;;4.92;3.12;;;;;;;19.93;82.39;95703.63;1701087;84;21075;-70
2022/08/25 06:13:05;;;;;;;8.18;3.25;;;;;;;20.02;82.12;95704.48;1701174;84;21035;-71
2022/08/25 06:15:32;;;;;;;9.55;3.90;;;;;;;20.14;81.90;95706.11;1701263;83;21031;-71
2022/08/25 06:18:00;;;;;;;13.72;3.95;;;;;;;20.25;81.46;95697.00;1701107;84;20976;-71
2022/08/25 06:20:29;;;;;;;9.05;3.92;;;;;;;20.40;81.71;95694.80;1701303;84;21039;-71
2022/08/25 06:22:57;;;;;;;8.15;4.08;;;;;;;20.54;81.05;95692.70;1701259;84;21092;-71
2022/08/25 06:25:26;;;;;;;10.03;4.10;;;;;;;20.63;80.24;95692.20;1701255;84;21513;-71
2022/08/25 06:27:54;;;;;;;8.83;3.83;;;;;;;20.68;79.87;95691.94;1700828;84;21090;-71
2022/08/25 06:30:23;;;;;;;7.85;4.03;;;;;;;20.81;79.87;95694.78;1701275;84;20972;-71
2022/08/25 06:32:51;;;;;;;15.03;4.90;;;;;;;20.83;78.85;95701.79;1701058;84;21015;-71
2022/08/25 06:35:19;;;;;;;10.40;4.15;;;;;;;20.87;78.97;95706.03;1701096;84;21067;-71
2022/08/25 06:37:46;;;;;;;7.17;4.00;;;;;;;20.94;78.98;95698.03;1701156;84;21011;-71
2022/08/25 06:40:15;;;;;;;9.75;4.47;;;;;;;21.02;78.28;95706.97;1701359;84;20999;-71
2022/08/25 06:42:44;;;;;;;10.63;4.65;;;;;;;21.06;78.00;95703.14;1700838;84;21125;-71
2022/08/25 06:45:11;;;;;;;15.88;4.60;;;;;;;21.15;78.01;95698.59;1701224;84;21008;-71
2022/08/25 06:47:38;;;;;;;13.68;4.40;;;;;;;21.21;77.70;95705.41;1701225;84;21027;-70
2022/08/25 06:50:06;;;;;;;10.93;4.28;;;;;;;21.32;77.72;95696.74;1701076;84;20991;-71
2022/08/25 06:52:32;;;;;;;8.50;4.08;;;;;;;21.47;77.72;95703.02;1701128;84;21103;-71
2022/08/25 06:54:59;;;;;;;11.15;4.12;;;;;;;21.60;77.62;95700.86;1718316;83;21047;-71
2022/08/25 06:57:27;;;;;;;8.20;3.90;;;;;;;21.73;77.42;95693.41;1731852;83;21085;-71
2022/08/25 06:59:53;;;;;;;10.75;4.08;;;;;;;21.85;76.87;95695.34;1732010;83;21023;-71
2022/08/25 07:02:20;;;;;;;8.35;4.20;;;;;;;21.94;76.58;95695.23;1732205;83;21062;-71
2022/08/25 07:04:46;;;;;;;5.65;3.62;;;;;;;22.03;76.73;95697.37;1732014;83;21034;-71
2022/08/25 07:07:13;;;;;;;10.35;4.08;;;;;;;22.16;76.85;95698.32;1731915;83;21496;-71
2022/08/25 07:09:40;;;;;;;6.50;3.17;;;;;;;22.33;76.61;95697.78;1731603;83;21027;-71
2022/08/25 07:12:07;;;;;;;7.90;3.33;;;;;;;22.51;76.15;95695.25;1731748;83;21651;-71
2022/08/25 07:14:35;;;;;;;9.35;3.17;;;;;;;22.66;76.01;95690.23;1732173;83;21493;-71
2022/08/25 07:17:02;;;;;;;10.75;3.33;;;;;;;22.84;75.33;95694.88;1731681;83;21019;-71
2022/08/25 07:19:29;;;;;;;8.30;2.98;;;;;;;23.01;75.39;95687.09;1731819;83;21035;-71
2022/08/25 07:21:56;;;;;;;11.33;3.47;;;;;;;23.18;74.69;95695.84;1731912;83;21046;-71
2022/08/25 07:24:23;;;;;;;8.83;3.08;;;;;;;23.31;73.24;95691.39;1732002;83;21517;-70
2022/08/25 07:26:51;;;;;;;14.15;3.47;;;;;;;23.45;73.22;95691.78;1732275;83;20959;-71
2022/08/25 07:29:25;;;;;;;17.62;3.52;;;;;;;23.65;71.63;95694.46;1732070;83;21516;-71
2022/08/25 07:31:52;;;;;;;10.38;3.83;;;;;;;23.78;71.77;95685.94;1732050;83;21019;-71
2022/08/25 07:37:04;;;;;;;12.00;4.20;;;;;;;23.85;70.64;95689.08;1731902;83;21063;-71
2022/08/25 07:39:32;;;;;;;11.97;3.17;;;;;;;23.96;70.68;95686.02;1732056;83;21035;-71
2022/08/25 07:41:59;;;;;;;23.92;4.10;;;;;;;24.04;67.35;95686.82;1732152;83;21054;-71
2022/08/25 07:44:26;;;;;;;14.43;3.85;;;;;;;24.13;66.38;95679.41;1732058;83;21062;-71
2022/08/25 07:46:53;;;;;;;12.90;3.35;;;;;;;24.32;67.17;95676.77;1732103;83;20991;-71
2022/08/25 07:49:23;;;;;;;17.35;3.67;;;;;;;24.55;66.94;95671.09;1731883;83;21480;-71
2022/08/25 07:51:51;;;;;;;16.57;3.37;;;;;;;24.67;64.93;95668.84;1732241;83;21015;-71
2022/08/25 07:54:18;;;;;;;17.00;3.37;;;;;;;24.80;64.87;95664.75;1727118;83;20995;-71
2022/08/25 07:56:45;;;;;;;17.05;3.87;;;;;;;24.90;61.82;95667.14;1701237;84;21481;-71
2022/08/25 07:59:11;;;;;;;17.23;3.10;;;;;;;24.98;59.96;95667.92;1701045;84;21015;-72
2022/08/25 08:01:39;;;;;;;23.07;3.70;;;;;;;25.04;57.17;95669.65;1701419;84;21020;-71
2022/08/25 08:04:05;;;;;;;17.20;3.85;;;;;;;25.02;57.24;95668.05;1701144;84;21514;-71
2022/08/25 08:06:32;;;;;;;16.40;3.25;;;;;;;25.14;58.65;95665.78;1701168;84;21051;-71
2022/08/25 08:09:01;;;;;;;18.90;3.10;;;;;;;25.24;57.52;95656.53;1701122;84;21063;-71
2022/08/25 08:11:33;;;;;;;17.20;3.20;;;;;;;25.31;56.11;95663.19;1701123;84;21080;-71
2022/08/25 08:14:02;;;;;;;22.77;3.95;;;;;;;25.43;57.16;95661.41;1701281;84;20987;-71
2022/08/25 08:16:31;;;;;;;11.73;3.37;;;;;;;25.53;56.25;95661.53;1701252;84;21561;-71
2022/08/25 08:18:59;;;;;;;10.82;3.20;;;;;;;25.57;55.82;95661.18;1700877;84;21465;-71
2022/08/25 08:21:31;;;;;;;15.18;3.62;;;;;;;25.59;53.71;95657.88;1701019;84;21142;-71
2022/08/25 08:23:59;;;;;;;16.42;3.22;;;;;;;25.59;55.21;95657.88;1701413;84;21062;-71
2022/08/25 08:26:27;;;;;;;13.22;3.42;;;;;;;25.71;56.55;95654.72;1701025;84;20984;-71
2022/08/25 08:28:54;;;;;;;14.63;3.10;;;;;;;25.79;55.50;95654.98;1701246;84;21007;-71
2022/08/25 08:31:25;;;;;;;21.65;3.70;;;;;;;25.88;56.41;95652.95;1701343;84;21489;-71
2022/08/25 08:33:54;;;;;;;15.53;3.47;;;;;;;25.92;52.74;95656.76;1701121;84;21074;-71
2022/08/25 08:36:22;;;;;;;25.12;3.87;;;;;;;25.99;54.23;95652.09;1701337;84;21027;-71
2022/08/25 08:38:49;;;;;;;7.85;2.90;;;;;;;26.04;52.86;95658.50;1700981;84;21035;-71
2022/08/25 08:44:24;;;;;;;18.85;3.50;;;;;;;26.17;54.50;95659.23;1701322;84;21532;-71
2022/08/25 08:47:09;;;;;;;12.90;3.02;;;;;;;26.31;53.29;95652.23;1684238;84;21075;-71
2022/08/25 08:50:17;;;;;;;18.15;3.40;;;;;;;26.44;53.36;95655.31;1701044;84;21027;-72
2022/08/25 08:52:55;;;;;;;17.10;4.05;;;;;;;26.51;52.87;95653.34;1701138;84;21042;-71
2022/08/25 08:55:52;;;;;;;24.35;3.83;;;;;;;26.59;51.37;95645.12;1683366;84;21034;-71
2022/08/25 08:58:25;;;;;;;18.73;3.47;;;;;;;26.68;51.01;95649.27;1699707;84;21575;-71
2022/08/25 09:00:57;;;;;;;14.75;3.33;;;;;;;26.80;48.99;95635.23;1696982;84;21012;-71
2022/08/25 09:03:40;;;;;;;14.18;3.15;;;;;;;26.89;50.87;95639.04;1701431;84;21055;-71
2022/08/25 09:06:21;;;;;;;23.95;3.62;;;;;;;26.89;50.92;95628.20;1701242;84;21071;-71
2022/08/25 09:08:48;;;;;;;17.92;3.80;;;;;;;26.86;51.53;95631.14;1700437;84;21008;-71
2022/08/25 09:11:45;;;;;;;19.37;3.20;;;;;;;26.91;48.85;95630.27;1701183;84;21067;-71
2022/08/25 09:14:47;;;;;;;21.93;4.15;;;;;;;27.04;49.36;95628.28;1683765;84;21031;-71
2022/08/25 09:17:40;;;;;;;19.77;3.60;;;;;;;27.06;47.82;95628.13;1690812;84;21039;-71
2022/08/25 09:20:24;;;;;;;21.02;3.65;;;;;;;27.17;48.76;95626.25;1701245;84;21003;-71
2022/08/25 09:23:08;;;;;;;21.73;3.25;;;;;;;27.46;48.34;95625.65;1700802;84;21035;-71
2022/08/25 09:25:46;;;;;;;17.15;3.70;;;;;;;27.66;46.51;95623.08;1701101;84;20988;-71
2022/08/25 09:28:55;;;;;;;14.85;3.10;;;;;;;27.71;45.79;95618.13;1701112;84;21510;-71
2022/08/25 09:31:32;;;;;;;13.43;3.15;;;;;;;27.76;45.79;95614.52;1700828;84;21027;-71
2022/08/25 09:34:03;;;;;;;15.83;3.60;;;;;;;27.87;45.86;95609.54;1698784;84;21019;-71
2022/08/25 09:36:32;;;;;;;14.80;3.50;;;;;;;28.04;46.60;95614.34;1701214;84;21019;-71
2022/08/25 09:39:00;;;;;;;19.25;3.55;;;;;;;28.13;45.85;95604.55;1701176;84;20999;-71
2022/08/25 09:41:48;;;;;;;36.15;4.08;;;;;;;28.18;45.32;95602.30;1700922;84;21051;-71
2022/08/25 09:44:35;;;;;;;18.75;3.72;;;;;;;28.17;43.03;95603.27;1701254;84;21019;-72
2022/08/25 09:47:22;;;;;;;22.58;3.45;;;;;;;28.45;45.38;95604.41;1701333;84;21107;-71
2022/08/25 09:49:59;;;;;;;21.23;3.60;;;;;;;28.62;44.24;95602.39;1699793;84;21067;-71
2022/08/25 09:52:36;;;;;;;20.40;3.42;;;;;;;28.76;42.31;95593.51;1701132;84;20960;-71
2022/08/25 09:55:17;;;;;;;19.73;3.35;;;;;;;28.94;42.45;95597.75;1701787;83;21038;-71
2022/08/25 09:57:48;;;;;;;21.15;3.62;;;;;;;29.14;42.75;95596.80;1700956;84;21015;-71
2022/08/25 10:00:27;;;;;;;19.67;4.08;;;;;;;29.27;42.09;95593.28;1701284;84;21079;-71
2022/08/25 10:03:19;;;;;;;18.35;3.87;;;;;;;29.19;40.96;95585.50;1701309;84;21111;-71
2022/08/25 10:05:59;;;;;;;18.75;3.40;;;;;;;29.21;41.05;95585.72;1700681;84;21037;-72
2022/08/25 10:08:46;;;;;;;22.35;3.33;;;;;;;29.05;39.95;95591.70;1701346;84;21554;-71
2022/08/25 10:11:36;;;;;;;18.27;3.72;;;;;;;28.99;40.26;95580.02;1701120;84;20991;-71
2022/08/25 10:14:16;;;;;;;16.57;3.87;;;;;;;29.06;41.56;95577.64;1701336;84;21488;-71
2022/08/25 10:16:45;;;;;;;15.35;3.42;;;;;;;29.24;41.95;95577.78;1701211;84;21067;-72
2022/08/25 10:19:26;;;;;;;20.08;3.40;;;;;;;29.33;39.69;95579.61;1700984;84;21043;-70
2022/08/25 10:22:31;;;;;;;16.02;3.22;;;;;;;29.38;41.56;95580.55;1701173;84;21042;-71
2022/08/25 10:24:54;;;;;;;19.73;3.80;;;;;;;29.40;41.82;95582.12;1701384;84;21008;-71
2022/08/25 10:27:44;;;;;;;20.08;3.40;;;;;;;29.53;43.01;95570.47;1700973;84;21533;-71
2022/08/25 10:30:22;;;;;;;16.23;3.70;;;;;;;29.73;42.96;95581.31;1701383;84;21071;-71
2022/08/25 10:33:15;;;;;;;21.23;4.08;;;;;;;29.85;41.31;95573.85;1701423;84;21019;-71
2022/08/25 10:35:53;;;;;;;16.73;3.52;;;;;;;29.87;41.07;95580.86;1701087;84;21032;-70
2022/08/25 10:38:45;;;;;;;17.02;3.40;;;;;;;29.73;37.14;95575.37;1700946;84;21040;-71
2022/08/25 10:41:56;;;;;;;23.87;3.67;;;;;;;29.64;37.91;95568.08;1701236;84;21472;-71
2022/08/25 10:47:40;;;;;;;17.65;3.52;;;;;;;29.66;39.35;95559.31;1701340;84;20964;-71
2022/08/25 10:50:37;;;;;;;14.05;3.35;;;;;;;29.66;37.75;95565.23;1700416;84;21535;-71
2022/08/25 10:53:30;;;;;;;21.57;3.42;;;;;;;29.76;38.70;95560.62;1679224;84;21008;-71
2022/08/25 10:56:07;;;;;;;24.45;4.15;;;;;;;29.96;37.74;95549.18;1701086;83;21055;-71
2022/08/25 10:59:14;;;;;;;22.87;3.27;;;;;;;30.14;35.95;95542.48;1700830;84;21039;-71
2022/08/25 11:02:11;;;;;;;20.30;3.25;;;;;;;30.17;35.62;95546.25;1700862;84;21087;-71
2022/08/25 11:05:05;;;;;;;25.68;3.70;;;;;;;30.28;36.29;95542.50;1700506;84;21584;-71
2022/08/25 11:07:42;;;;;;;25.15;3.30;;;;;;;30.33;35.60;95539.67;1701257;84;21051;-71
2022/08/25 11:10:14;;;;;;;23.47;4.58;;;;;;;30.40;35.47;95541.30;1701565;84;20968;-71
2022/08/25 11:12:45;;;;;;;16.85;3.20;;;;;;;30.49;35.26;95534.06;1701439;84;21070;-71
2022/08/25 11:15:25;;;;;;;21.52;3.67;;;;;;;30.51;33.73;95532.91;1699718;84;21007;-71
2022/08/25 11:18:06;;;;;;;18.40;3.77;;;;;;;30.61;34.41;95536.42;1701420;84;21496;-71
2022/08/25 11:20:57;;;;;;;13.75;3.60;;;;;;;30.72;34.57;95529.05;1701161;84;21019;-71
2022/08/25 11:23:28;;;;;;;18.35;3.10;;;;;;;30.87;33.94;95535.73;1701031;84;21506;-72
2022/08/25 11:26:14;;;;;;;19.23;3.35;;;;;;;30.94;32.97;95527.27;1679330;84;21023;-71
2022/08/25 11:28:55;;;;;;;24.12;3.52;;;;;;;30.90;33.47;95527.75;1700230;84;21830;-70
2022/08/25 11:31:24;;;;;;;27.22;3.55;;;;;;;31.07;32.17;95522.78;1701511;84;21568;-71
2022/08/25 11:33:52;;;;;;;19.50;3.62;;;;;;;31.33;32.57;95519.28;1701517;84;21019;-71
2022/08/25 11:36:39;;;;;;;21.20;4.28;;;;;;;31.45;30.42;95522.99;1700967;84;21036;-72
2022/08/25 11:39:38;;;;;;;22.27;3.62;;;;;;;31.63;30.91;95520.73;1701400;84;21007;-71
2022/08/25 11:42:29;;;;;;;16.90;3.15;;;;;;;32.08;30.19;95510.09;1698954;84;21047;-71
2022/08/25 11:45:39;;;;;;;16.93;3.42;;;;;;;32.48;29.38;95506.73;1701391;84;21035;-71
2022/08/25 11:48:29;;;;;;;23.52;3.83;;;;;;;32.82;29.56;95511.77;1701406;84;20988;-71
2022/08/25 11:51:11;;;;;;;22.20;3.87;;;;;;;33.24;30.72;95507.58;1700329;84;21059;-71
2022/08/25 11:53:41;;;;;;;27.22;4.37;;;;;;;33.60;27.20;95505.36;1701254;84;21042;-72
2022/08/25 11:56:31;;;;;;;20.75;3.62;;;;;;;33.61;25.45;95501.59;1701235;83;21082;-71
2022/08/25 11:58:58;;;;;;;21.65;3.42;;;;;;;33.75;26.93;95505.52;1698406;84;21541;-71
2022/08/25 12:01:49;;;;;;;23.92;4.10;;;;;;;34.03;26.09;95507.84;1701208;84;21112;-71
2022/08/25 12:04:41;;;;;;;19.37;4.00;;;;;;;34.39;26.45;95501.92;1701252;84;21003;-71
2022/08/25 12:07:18;;;;;;;27.62;3.42;;;;;;;34.80;27.26;95503.10;1701366;84;21019;-71